createdAt,value
2022-09-13T00:00:49.046Z,68.72
2022-09-13T00:01:49.057Z,68.85
2022-09-13T00:02:49.087Z,68.52
2022-09-13T00:03:49.156Z,68.41
2022-09-13T00:04:49.046Z,68.41
2022-09-13T00:05:49.146Z,68.52
2022-09-13T00:06:49.267Z,68.52
2022-09-13T00:07:49.157Z,68.82
2022-09-13T00:08:49.027Z,68.75
2022-09-13T00:09:48.949Z,68.95
2022-09-13T00:10:49.370Z,68.65
2022-09-13T00:11:49.518Z,68.95
2022-09-13T00:12:49.565Z,68.65
2022-09-13T00:13:49.048Z,68.85
2022-09-13T00:14:49.385Z,68.52
2022-09-13T00:15:49.326Z,69.15
2022-09-13T00:16:48.927Z,69.25
2022-09-13T00:17:49.055Z,68.85
2022-09-13T00:18:49.083Z,68.85
2022-09-13T00:19:48.966Z,68.62
2022-09-13T00:20:49.365Z,68.02
2022-09-13T00:21:48.956Z,67.91
2022-09-13T00:22:48.965Z,68.02
2022-09-13T00:23:49.524Z,68.12
2022-09-13T00:24:48.817Z,68.12
2022-09-13T00:25:48.855Z,68.21
2022-09-13T00:26:48.895Z,67.91
2022-09-13T00:27:48.914Z,68.02
2022-09-13T00:28:48.925Z,68.02
2022-09-13T00:29:48.812Z,67.61
2022-09-13T00:30:49.084Z,67.58
2022-09-13T00:31:49.367Z,67.71
2022-09-13T00:32:49.196Z,67.78
2022-09-13T00:33:48.787Z,67.82
2022-09-13T00:34:48.966Z,67.61
2022-09-13T00:35:48.805Z,67.48
2022-09-13T00:36:48.734Z,67.58
2022-09-13T00:37:48.757Z,67.68
2022-09-13T00:38:48.763Z,67.91
2022-09-13T00:39:49.844Z,68.21
2022-09-13T00:40:48.884Z,67.91
2022-09-13T00:41:48.938Z,67.82
2022-09-13T00:42:48.980Z,67.88
2022-09-13T00:43:48.854Z,68.12
2022-09-13T00:44:48.745Z,67.58
2022-09-13T00:45:49.185Z,67.48
2022-09-13T00:46:48.756Z,67.58
2022-09-13T00:47:49.203Z,67.28
2022-09-13T00:48:48.880Z,67.28
2022-09-13T00:49:48.852Z,67.58
2022-09-13T00:50:49.222Z,67.58
2022-09-13T00:51:48.633Z,67.58
2022-09-13T00:52:48.636Z,67.68
2022-09-13T00:53:49.052Z,67.78
2022-09-13T00:54:48.656Z,67.48
2022-09-13T00:55:48.692Z,67.68
2022-09-13T00:56:48.624Z,67.58
2022-09-13T00:57:49.140Z,67.38
2022-09-13T00:58:48.571Z,67.38
2022-09-13T00:59:48.562Z,67.48
2022-09-13T01:00:49.372Z,67.48
2022-09-13T01:01:48.612Z,67.58
2022-09-13T01:02:48.574Z,67.38
2022-09-13T01:03:49.226Z,67.38
2022-09-13T01:04:48.591Z,67.48
2022-09-13T01:05:48.594Z,67.38
2022-09-13T01:06:49.314Z,67.98
2022-09-13T01:07:48.603Z,67.38
2022-09-13T01:08:48.510Z,67.58
2022-09-13T01:09:48.513Z,67.38
2022-09-13T01:10:48.521Z,67.58
2022-09-13T01:11:48.539Z,67.68
2022-09-13T01:12:48.554Z,67.75
2022-09-13T01:13:48.566Z,67.68
2022-09-13T01:14:48.502Z,67.68
2022-09-13T01:15:48.581Z,67.48
2022-09-13T01:16:48.518Z,67.48
2022-09-13T01:17:48.471Z,67.68
2022-09-13T01:18:48.481Z,68.38
2022-09-13T01:19:48.482Z,68.99
2022-09-13T01:20:48.481Z,68.18
2022-09-13T01:21:48.521Z,68.38
2022-09-13T01:22:48.573Z,69.19
2022-09-13T01:23:48.711Z,68.29
2022-09-13T01:24:48.554Z,68.29
2022-09-13T01:25:48.409Z,67.88
2022-09-13T01:26:48.426Z,68.18
2022-09-13T01:27:48.563Z,68.29
2022-09-13T01:28:48.570Z,68.59
2022-09-13T01:29:48.584Z,68.88
2022-09-13T01:30:48.360Z,68.38
2022-09-13T01:31:48.666Z,68.18
2022-09-13T01:32:48.631Z,67.78
2022-09-13T01:33:48.900Z,67.88
2022-09-13T01:34:48.369Z,67.88
2022-09-13T01:35:48.360Z,67.78
2022-09-13T01:36:48.721Z,67.78
2022-09-13T01:37:48.306Z,68.49
2022-09-13T01:38:48.340Z,68.18
2022-09-13T01:39:48.325Z,67.88
2022-09-13T01:40:48.899Z,67.88
2022-09-13T01:41:48.921Z,68.18
2022-09-13T01:42:48.929Z,68.18
2022-09-13T01:43:48.624Z,68.29
2022-09-13T01:44:48.839Z,68.29
2022-09-13T01:45:48.891Z,68.29
2022-09-13T01:46:48.389Z,68.18
2022-09-13T01:47:48.607Z,68.08
2022-09-13T01:48:48.228Z,67.98
2022-09-13T01:49:48.257Z,67.98
2022-09-13T01:50:48.229Z,68.08
2022-09-13T01:51:48.278Z,68.08
2022-09-13T01:52:48.325Z,68.29
2022-09-13T01:53:48.354Z,67.68
2022-09-13T01:54:48.294Z,67.78
2022-09-13T01:55:48.296Z,68.08
2022-09-13T01:56:48.208Z,67.98
2022-09-13T01:57:48.149Z,67.88
2022-09-13T01:58:48.168Z,68.08
2022-09-13T01:59:48.158Z,68.08
2022-09-13T02:00:48.255Z,68.18
2022-09-13T02:01:48.192Z,68.29
2022-09-13T02:02:48.229Z,67.98
2022-09-13T02:03:48.352Z,68.08
2022-09-13T02:04:48.248Z,68.38
2022-09-13T02:05:48.256Z,68.29
2022-09-13T02:06:48.266Z,68.68
2022-09-13T02:07:48.279Z,68.49
2022-09-13T02:08:48.087Z,68.59
2022-09-13T02:09:48.130Z,68.38
2022-09-13T02:10:48.317Z,68.68
2022-09-13T02:11:48.058Z,68.49
2022-09-13T02:12:48.092Z,68.38
2022-09-13T02:13:48.214Z,68.38
2022-09-13T02:14:48.046Z,68.38
2022-09-13T02:15:48.112Z,68.18
2022-09-13T02:16:48.172Z,68.18
2022-09-13T02:17:48.128Z,68.38
2022-09-13T02:18:48.029Z,68.59
2022-09-13T02:19:48.157Z,68.88
2022-09-13T02:20:48.168Z,68.99
2022-09-13T02:21:48.186Z,68.88
2022-09-13T02:22:48.196Z,68.88
2022-09-13T02:23:48.212Z,69.19
2022-09-13T02:24:48.067Z,68.49
2022-09-13T02:25:47.966Z,68.59
2022-09-13T02:26:47.970Z,68.38
2022-09-13T02:27:48.015Z,68.79
2022-09-13T02:28:48.038Z,68.59
2022-09-13T02:29:48.116Z,68.99
2022-09-13T02:30:47.935Z,68.59
2022-09-13T02:31:48.288Z,68.18
2022-09-13T02:32:48.256Z,68.49
2022-09-13T02:33:48.385Z,68.18
2022-09-13T02:34:48.075Z,68.49
2022-09-13T02:35:47.913Z,68.38
2022-09-13T02:36:48.385Z,68.49
2022-09-13T02:37:48.015Z,68.18
2022-09-13T02:38:48.399Z,69.09
2022-09-13T02:39:48.441Z,68.18
2022-09-13T02:40:48.275Z,68.18
2022-09-13T02:41:48.435Z,68.08
2022-09-13T02:42:48.444Z,68.05
2022-09-13T02:43:47.907Z,68.76
2022-09-13T02:44:47.864Z,67.78
2022-09-13T02:45:48.528Z,68.18
2022-09-13T02:46:47.979Z,68.68
2022-09-13T02:47:47.923Z,68.18
2022-09-13T02:48:47.882Z,68.18
2022-09-13T02:49:48.103Z,68.18
2022-09-13T02:50:48.081Z,68.29
2022-09-13T02:51:48.013Z,68.29
2022-09-13T02:52:47.955Z,68.49
2022-09-13T02:53:47.970Z,68.49
2022-09-13T02:54:47.815Z,68.59
2022-09-13T02:55:48.313Z,69.09
2022-09-13T02:56:48.632Z,68.49
2022-09-13T02:57:48.644Z,68.88
2022-09-13T02:58:48.337Z,68.88
2022-09-13T02:59:47.734Z,68.88
2022-09-13T03:00:48.692Z,68.88
2022-09-13T03:01:47.810Z,68.59
2022-09-13T03:02:47.720Z,68.59
2022-09-13T03:03:47.712Z,68.49
2022-09-13T03:04:47.795Z,69.19
2022-09-13T03:05:47.754Z,68.49
2022-09-13T03:06:47.712Z,68.68
2022-09-13T03:07:47.734Z,68.59
2022-09-13T03:08:47.925Z,69.09
2022-09-13T03:09:47.741Z,69.09
2022-09-13T03:10:47.892Z,69.39
2022-09-13T03:11:47.972Z,68.59
2022-09-13T03:12:48.043Z,69.39
2022-09-13T03:13:48.065Z,69.09
2022-09-13T03:14:48.143Z,69.19
2022-09-13T03:15:47.665Z,69.29
2022-09-13T03:16:47.703Z,69.19
2022-09-13T03:17:48.244Z,69.19
2022-09-13T03:18:48.416Z,68.88
2022-09-13T03:19:47.611Z,68.88
2022-09-13T03:20:48.060Z,68.88
2022-09-13T03:21:48.202Z,68.79
2022-09-13T03:22:48.493Z,68.59
2022-09-13T03:23:47.853Z,69.29
2022-09-13T03:24:47.622Z,68.79
2022-09-13T03:25:47.541Z,68.88
2022-09-13T03:26:48.147Z,68.88
2022-09-13T03:27:48.342Z,68.59
2022-09-13T03:28:48.186Z,68.59
2022-09-13T03:29:48.111Z,68.68
2022-09-13T03:30:47.533Z,68.59
2022-09-13T03:31:47.751Z,68.68
2022-09-13T03:32:47.521Z,68.59
2022-09-13T03:33:47.514Z,68.59
2022-09-13T03:34:48.441Z,68.29
2022-09-13T03:35:47.571Z,68.29
2022-09-13T03:36:47.811Z,68.49
2022-09-13T03:37:47.791Z,68.68
2022-09-13T03:38:47.443Z,68.79
2022-09-13T03:39:47.548Z,68.68
2022-09-13T03:40:47.530Z,69.09
2022-09-13T03:41:47.473Z,69.09
2022-09-13T03:42:47.641Z,68.79
2022-09-13T03:43:47.632Z,69.39
2022-09-13T03:44:47.449Z,69.69
2022-09-13T03:45:47.804Z,69.99
2022-09-13T03:46:47.636Z,70.70
2022-09-13T03:47:47.390Z,70.79
2022-09-13T03:48:47.395Z,71.33
2022-09-13T03:49:47.386Z,71.63
2022-09-13T03:50:47.399Z,72.24
2022-09-13T03:51:47.366Z,71.43
2022-09-13T03:52:47.430Z,71.83
2022-09-13T03:53:47.399Z,71.94
2022-09-13T03:54:47.451Z,71.94
2022-09-13T03:55:47.450Z,71.53
2022-09-13T03:56:47.330Z,72.53
2022-09-13T03:57:47.509Z,71.83
2022-09-13T03:58:47.318Z,71.33
2022-09-13T03:59:47.316Z,72.03
2022-09-13T04:00:47.435Z,71.03
2022-09-13T04:01:47.320Z,71.53
2022-09-13T04:02:47.517Z,71.43
2022-09-13T04:03:47.500Z,72.03
2022-09-13T04:04:47.288Z,73.54
2022-09-13T04:05:47.517Z,73.24
2022-09-13T04:06:47.614Z,72.87
2022-09-13T04:07:47.622Z,74.58
2022-09-13T04:08:47.704Z,75.68
2022-09-13T04:09:47.347Z,74.08
2022-09-13T04:10:47.360Z,73.58
2022-09-13T04:11:47.338Z,71.87
2022-09-13T04:12:47.253Z,72.17
2022-09-13T04:13:47.222Z,72.77
2022-09-13T04:14:47.220Z,73.27
2022-09-13T04:15:47.245Z,75.09
2022-09-13T04:16:47.313Z,75.29
2022-09-13T04:17:47.185Z,73.18
2022-09-13T04:18:47.379Z,73.27
2022-09-13T04:19:47.427Z,72.97
2022-09-13T04:20:47.228Z,73.07
2022-09-13T04:21:47.518Z,75.18
2022-09-13T04:22:47.507Z,73.88
2022-09-13T04:23:47.607Z,73.27
2022-09-13T04:24:47.668Z,74.68
2022-09-13T04:25:47.647Z,76.69
2022-09-13T04:26:47.637Z,75.29
2022-09-13T04:27:47.787Z,75.32
2022-09-13T04:28:47.913Z,75.02
2022-09-13T04:29:47.866Z,74.62
2022-09-13T04:30:47.347Z,73.91
2022-09-13T04:31:47.801Z,73.51
2022-09-13T04:32:47.077Z,73.21
2022-09-13T04:33:47.388Z,73.18
2022-09-13T04:34:47.096Z,72.67
2022-09-13T04:35:47.057Z,73.18
2022-09-13T04:36:47.284Z,73.98
2022-09-13T04:37:47.847Z,74.68
2022-09-13T04:38:47.619Z,73.27
2022-09-13T04:39:47.822Z,73.18
2022-09-13T04:40:47.112Z,72.77
2022-09-13T04:41:47.685Z,72.97
2022-09-13T04:42:48.057Z,73.18
2022-09-13T04:43:47.337Z,72.67
2022-09-13T04:44:47.057Z,72.77
2022-09-13T04:45:47.095Z,73.18
2022-09-13T04:46:47.176Z,73.38
2022-09-13T04:47:47.274Z,73.58
2022-09-13T04:48:48.080Z,73.47
2022-09-13T04:49:46.977Z,73.58
2022-09-13T04:50:47.675Z,74.88
2022-09-13T04:51:46.955Z,77.29
2022-09-13T04:52:46.936Z,76.49
2022-09-13T04:53:46.925Z,76.43
2022-09-13T04:54:46.996Z,76.12
2022-09-13T04:55:47.026Z,74.41
2022-09-13T04:56:47.478Z,75.42
2022-09-13T04:57:47.026Z,75.62
2022-09-13T04:58:46.927Z,76.23
2022-09-13T04:59:47.156Z,76.83
2022-09-13T05:00:47.332Z,77.63
2022-09-13T05:01:46.936Z,78.03
2022-09-13T05:02:47.304Z,77.73
2022-09-13T05:03:47.473Z,76.73
2022-09-13T05:04:47.484Z,76.12
2022-09-13T05:05:47.294Z,77.53
2022-09-13T05:06:46.874Z,77.73
2022-09-13T05:07:47.084Z,76.63
2022-09-13T05:08:47.124Z,77.33
2022-09-13T05:09:47.113Z,77.87
2022-09-13T05:10:47.604Z,78.58
2022-09-13T05:11:47.502Z,78.98
2022-09-13T05:12:47.163Z,78.78
2022-09-13T05:13:47.644Z,79.08
2022-09-13T05:14:47.813Z,78.38
2022-09-13T05:15:47.128Z,76.36
2022-09-13T05:16:46.804Z,76.16
2022-09-13T05:17:46.762Z,75.72
2022-09-13T05:18:46.969Z,75.02
2022-09-13T05:19:46.754Z,76.12
2022-09-13T05:20:46.732Z,75.22
2022-09-13T05:21:46.751Z,74.82
2022-09-13T05:22:46.754Z,75.12
2022-09-13T05:23:46.763Z,76.09
2022-09-13T05:24:46.772Z,76.83
2022-09-13T05:25:46.803Z,77.03
2022-09-13T05:26:46.799Z,76.63
2022-09-13T05:27:46.772Z,75.22
2022-09-13T05:28:46.837Z,74.92
2022-09-13T05:29:46.793Z,74.88
2022-09-13T05:30:46.662Z,73.88
2022-09-13T05:31:46.863Z,74.38
2022-09-13T05:32:46.895Z,73.68
2022-09-13T05:33:46.752Z,73.27
2022-09-13T05:34:46.903Z,73.04
2022-09-13T05:35:46.912Z,73.14
2022-09-13T05:36:50.435Z,72.84
2022-09-13T05:37:46.662Z,72.84
2022-09-13T05:38:46.952Z,73.14
2022-09-13T05:40:10.363Z,73.24
2022-09-13T05:40:46.643Z,73.24
2022-09-13T05:41:47.150Z,73.04
2022-09-13T05:42:46.572Z,72.64
2022-09-13T05:43:46.573Z,73.04
2022-09-13T05:44:46.692Z,73.04
2022-09-13T05:45:46.605Z,72.53
2022-09-13T05:46:46.621Z,72.84
2022-09-13T05:47:46.690Z,72.74
2022-09-13T05:48:46.684Z,72.24
2022-09-13T05:50:08.898Z,72.53
2022-09-13T05:51:02.092Z,72.33
2022-09-13T05:51:46.926Z,72.24
2022-09-13T05:52:46.569Z,72.00
2022-09-13T05:53:47.022Z,72.40
2022-09-13T05:54:46.740Z,72.00
2022-09-13T05:55:47.131Z,72.10
2022-09-13T05:56:47.021Z,72.20
2022-09-13T05:57:46.500Z,72.50
2022-09-13T05:58:46.596Z,72.30
2022-09-13T05:59:47.229Z,72.30
2022-09-13T06:00:47.240Z,72.40
2022-09-13T06:01:46.486Z,72.30
2022-09-13T06:02:46.452Z,72.50
2022-09-13T06:03:46.469Z,72.10
2022-09-13T06:04:46.522Z,72.20
2022-09-13T06:05:46.409Z,72.50
2022-09-13T06:06:46.399Z,72.10
2022-09-13T06:07:46.427Z,71.90
2022-09-13T06:08:46.514Z,72.17
2022-09-13T06:09:46.523Z,72.30
2022-09-13T06:10:46.440Z,72.20
2022-09-13T06:11:46.460Z,72.10
2022-09-13T06:12:46.462Z,72.10
2022-09-13T06:13:46.490Z,71.90
2022-09-13T06:14:46.518Z,71.97
2022-09-13T06:15:46.584Z,72.06
2022-09-13T06:16:46.528Z,72.06
2022-09-13T06:17:46.538Z,72.27
2022-09-13T06:18:46.606Z,72.37
2022-09-13T06:19:46.566Z,71.97
2022-09-13T06:20:46.348Z,72.06
2022-09-13T06:21:46.589Z,72.27
2022-09-13T06:22:46.287Z,72.06
2022-09-13T06:23:46.288Z,71.47
2022-09-13T06:24:46.288Z,71.47
2022-09-13T06:25:46.277Z,71.36
2022-09-13T06:26:46.247Z,71.33
2022-09-13T06:27:46.248Z,71.63
2022-09-13T06:28:46.329Z,71.53
2022-09-13T06:29:46.338Z,71.83
2022-09-13T06:30:46.217Z,72.03
2022-09-13T06:31:46.280Z,72.03
2022-09-13T06:32:46.369Z,71.93
2022-09-13T06:33:46.206Z,71.33
2022-09-13T06:34:46.237Z,71.33
2022-09-13T06:35:46.288Z,71.03
2022-09-13T06:36:46.180Z,71.23
2022-09-13T06:37:46.176Z,71.03
2022-09-13T06:38:46.301Z,71.33
2022-09-13T06:39:46.251Z,71.13
2022-09-13T06:40:46.219Z,71.03
2022-09-13T06:41:46.147Z,71.23
2022-09-13T06:42:46.297Z,71.13
2022-09-13T06:43:46.338Z,71.23
2022-09-13T06:44:46.176Z,71.43
2022-09-13T06:45:46.135Z,71.23
2022-09-13T06:46:46.532Z,71.63
2022-09-13T06:47:46.559Z,71.73
2022-09-13T06:48:46.453Z,71.63
2022-09-13T06:49:46.586Z,71.73
2022-09-13T06:50:46.597Z,71.93
2022-09-13T06:51:46.305Z,71.93
2022-09-13T06:52:46.183Z,72.24
2022-09-13T06:53:46.097Z,71.83
2022-09-13T06:54:46.647Z,71.93
2022-09-13T06:55:46.126Z,71.63
2022-09-13T06:56:46.538Z,72.13
2022-09-13T06:57:46.586Z,72.24
2022-09-13T06:58:46.696Z,72.03
2022-09-13T06:59:46.186Z,71.93
2022-09-13T07:00:46.775Z,72.13
2022-09-13T07:01:46.441Z,71.93
2022-09-13T07:02:46.475Z,72.03
2022-09-13T07:03:46.205Z,71.83
2022-09-13T07:04:46.636Z,71.93
2022-09-13T07:05:46.185Z,72.00
2022-09-13T07:06:45.985Z,71.39
2022-09-13T07:07:46.643Z,71.39
2022-09-13T07:08:46.569Z,72.09
2022-09-13T07:09:46.085Z,71.39
2022-09-13T07:10:46.515Z,71.70
2022-09-13T07:11:46.346Z,71.59
2022-09-13T07:12:46.255Z,71.30
2022-09-13T07:13:46.705Z,71.26
2022-09-13T07:14:46.775Z,71.36
2022-09-13T07:15:46.071Z,71.26
2022-09-13T07:16:45.907Z,71.66
2022-09-13T07:17:45.926Z,71.46
2022-09-13T07:18:46.013Z,71.46
2022-09-13T07:19:46.015Z,70.96
2022-09-13T07:20:46.064Z,71.56
2022-09-13T07:21:45.894Z,71.46
2022-09-13T07:22:45.885Z,71.83
2022-09-13T07:23:45.894Z,70.93
2022-09-13T07:24:45.898Z,70.83
2022-09-13T07:25:45.906Z,71.83
2022-09-13T07:26:45.895Z,71.23
2022-09-13T07:27:45.945Z,70.53
2022-09-13T07:28:46.014Z,70.83
2022-09-13T07:29:45.835Z,71.63
2022-09-13T07:30:46.111Z,71.33
2022-09-13T07:31:46.165Z,71.23
2022-09-13T07:32:46.175Z,71.12
2022-09-13T07:33:45.794Z,71.33
2022-09-13T07:34:45.774Z,71.39
2022-09-13T07:35:45.794Z,71.53
2022-09-13T07:36:45.906Z,71.12
2022-09-13T07:37:45.814Z,70.53
2022-09-13T07:38:46.287Z,70.32
2022-09-13T07:39:46.089Z,70.62
2022-09-13T07:40:46.417Z,70.23
2022-09-13T07:41:45.733Z,69.99
2022-09-13T07:42:45.852Z,70.09
2022-09-13T07:43:45.853Z,70.09
2022-09-13T07:44:45.743Z,69.66
2022-09-13T07:45:46.094Z,69.36
2022-09-13T07:46:46.334Z,69.66
2022-09-13T07:47:46.413Z,69.32
2022-09-13T07:48:45.902Z,68.82
2022-09-13T07:49:46.082Z,68.86
2022-09-13T07:50:46.093Z,68.76
2022-09-13T07:51:45.662Z,69.16
2022-09-13T07:52:45.665Z,69.76
2022-09-13T07:53:45.672Z,69.66
2022-09-13T07:54:45.672Z,69.66
2022-09-13T07:55:45.873Z,68.96
2022-09-13T07:56:45.725Z,69.06
2022-09-13T07:57:45.613Z,69.16
2022-09-13T07:58:45.950Z,68.96
2022-09-13T07:59:45.700Z,68.86
2022-09-13T08:00:45.703Z,69.36
2022-09-13T08:01:45.756Z,69.56
2022-09-13T08:02:45.666Z,69.23
2022-09-13T08:03:45.652Z,69.93
2022-09-13T08:04:45.633Z,69.02
2022-09-13T08:05:45.712Z,69.73
2022-09-13T08:06:45.664Z,69.32
2022-09-13T08:07:45.564Z,70.12
2022-09-13T08:08:45.552Z,68.09
2022-09-13T08:09:45.691Z,68.39
2022-09-13T08:10:49.353Z,67.19
2022-09-13T08:11:45.727Z,68.09
2022-09-13T08:12:45.739Z,67.26
2022-09-13T08:13:45.612Z,67.46
2022-09-13T08:14:45.771Z,66.73
2022-09-13T08:15:45.684Z,65.60
2022-09-13T08:16:45.612Z,65.83
2022-09-13T08:17:45.541Z,66.13
2022-09-13T08:18:45.576Z,66.86
2022-09-13T08:19:45.652Z,67.16
2022-09-13T08:20:45.681Z,67.06
2022-09-13T08:21:45.742Z,67.26
2022-09-13T08:22:45.442Z,67.46
2022-09-13T08:23:45.664Z,67.63
2022-09-13T08:24:45.962Z,66.93
2022-09-13T08:25:45.903Z,66.63
2022-09-13T08:26:45.990Z,66.39
2022-09-13T08:27:45.432Z,66.60
2022-09-13T08:28:45.472Z,65.90
2022-09-13T08:29:45.482Z,66.80
2022-09-13T08:30:45.447Z,65.60
2022-09-13T08:31:45.431Z,65.90
2022-09-13T08:32:45.492Z,66.03
2022-09-13T08:33:46.728Z,66.23
2022-09-13T08:34:45.592Z,66.13
2022-09-13T08:35:45.641Z,66.73
2022-09-13T08:36:45.691Z,66.83
2022-09-13T08:37:45.742Z,66.03
2022-09-13T08:38:45.683Z,65.86
2022-09-13T08:39:45.383Z,66.93
2022-09-13T08:40:45.890Z,66.13
2022-09-13T08:41:45.949Z,66.03
2022-09-13T08:42:45.990Z,66.03
2022-09-13T08:43:45.692Z,66.63
2022-09-13T08:44:45.671Z,66.73
2022-09-13T08:45:45.481Z,65.90
2022-09-13T08:46:45.911Z,65.50
2022-09-13T08:47:45.473Z,65.50
2022-09-13T08:48:45.371Z,65.20
2022-09-13T08:49:45.591Z,65.50
2022-09-13T08:50:45.250Z,65.73
2022-09-13T08:51:46.171Z,65.50
2022-09-13T08:52:45.232Z,64.77
2022-09-13T08:53:45.579Z,65.26
2022-09-13T08:54:45.721Z,65.47
2022-09-13T08:55:45.232Z,64.94
2022-09-13T08:56:46.041Z,65.04
2022-09-13T08:57:45.454Z,64.94
2022-09-13T08:58:45.320Z,64.34
2022-09-13T08:59:45.982Z,64.54
2022-09-13T09:00:45.270Z,64.34
2022-09-13T09:01:45.332Z,64.61
2022-09-13T09:02:45.368Z,64.21
2022-09-13T09:03:45.256Z,64.51
2022-09-13T09:04:45.140Z,64.21
2022-09-13T09:05:45.141Z,64.41
2022-09-13T09:06:45.175Z,63.91
2022-09-13T09:07:45.170Z,63.98
2022-09-13T09:08:45.230Z,63.78
2022-09-13T09:09:45.349Z,64.15
2022-09-13T09:10:45.359Z,63.05
2022-09-13T09:11:45.420Z,62.35
2022-09-13T09:12:45.462Z,62.85
2022-09-13T09:13:45.655Z,63.62
2022-09-13T09:14:45.591Z,62.05
2022-09-13T09:15:45.100Z,62.88
2022-09-13T09:16:45.161Z,63.11
2022-09-13T09:17:45.250Z,63.54
2022-09-13T09:18:45.051Z,64.14
2022-09-13T09:19:45.089Z,64.24
2022-09-13T09:20:45.557Z,64.64
2022-09-13T09:21:45.851Z,64.94
2022-09-13T09:22:45.030Z,63.71
2022-09-13T09:23:45.745Z,64.31
2022-09-13T09:24:45.020Z,64.81
2022-09-13T09:25:45.020Z,63.71
2022-09-13T09:26:45.030Z,63.21
2022-09-13T09:27:45.059Z,63.51
2022-09-13T09:28:45.750Z,63.81
2022-09-13T09:29:45.057Z,63.31
2022-09-13T09:30:44.996Z,63.41
2022-09-13T09:31:44.960Z,63.21
2022-09-13T09:32:44.968Z,64.01
2022-09-13T09:33:44.961Z,63.71
2022-09-13T09:34:44.968Z,64.21
2022-09-13T09:35:44.980Z,64.01
2022-09-13T09:36:45.010Z,63.91
2022-09-13T09:37:44.932Z,64.41
2022-09-13T09:38:44.922Z,64.48
2022-09-13T09:39:44.959Z,63.48
2022-09-13T09:40:44.939Z,63.18
2022-09-13T09:41:44.922Z,63.38
2022-09-13T09:42:44.890Z,63.88
2022-09-13T09:43:44.977Z,63.18
2022-09-13T09:44:44.935Z,64.84
2022-09-13T09:45:45.091Z,63.45
2022-09-13T09:46:45.113Z,63.55
2022-09-13T09:47:45.129Z,62.15
2022-09-13T09:48:45.148Z,62.85
2022-09-13T09:49:44.906Z,63.58
2022-09-13T09:50:44.829Z,63.55
2022-09-13T09:51:45.179Z,62.78
2022-09-13T09:52:45.190Z,63.25
2022-09-13T09:53:44.835Z,62.75
2022-09-13T09:54:44.822Z,62.88
2022-09-13T09:55:44.839Z,63.85
2022-09-13T09:56:44.909Z,63.85
2022-09-13T09:57:44.957Z,63.25
2022-09-13T09:58:45.010Z,63.38
2022-09-13T09:59:44.778Z,63.58
2022-09-13T10:00:44.759Z,63.35
2022-09-13T10:01:45.102Z,63.38
2022-09-13T10:02:44.819Z,63.65
2022-09-13T10:03:45.292Z,63.45
2022-09-13T10:04:45.251Z,62.52
2022-09-13T10:05:45.381Z,62.62
2022-09-13T10:06:45.350Z,62.62
2022-09-13T10:07:45.293Z,62.35
2022-09-13T10:08:44.691Z,63.15
2022-09-13T10:09:44.680Z,63.22
2022-09-13T10:10:44.698Z,63.09
2022-09-13T10:11:44.659Z,62.29
2022-09-13T10:12:44.700Z,62.66
2022-09-13T10:13:44.679Z,63.03
2022-09-13T10:14:44.677Z,60.27
2022-09-13T10:15:44.679Z,61.80
2022-09-13T10:16:44.749Z,62.40
2022-09-13T10:17:44.719Z,62.29
2022-09-13T10:18:45.498Z,62.29
2022-09-13T10:19:44.639Z,62.49
2022-09-13T10:20:44.680Z,62.26
2022-09-13T10:21:44.730Z,62.83
2022-09-13T10:22:44.769Z,62.23
2022-09-13T10:23:44.720Z,62.23
2022-09-13T10:24:44.800Z,62.63
2022-09-13T10:25:47.880Z,61.54
2022-09-13T10:26:44.830Z,61.41
2022-09-13T10:27:44.599Z,60.44
2022-09-13T10:28:44.608Z,62.40
2022-09-13T10:29:44.718Z,60.05
2022-09-13T10:30:44.903Z,61.07
2022-09-13T10:31:44.911Z,61.77
2022-09-13T10:32:44.909Z,61.67
2022-09-13T10:33:44.518Z,61.41
2022-09-13T10:34:44.598Z,60.22
2022-09-13T10:35:44.950Z,59.89
2022-09-13T10:36:53.332Z,59.79
2022-09-13T10:37:44.486Z,59.96
2022-09-13T10:38:46.251Z,59.59
2022-09-13T10:39:44.519Z,59.99
2022-09-13T10:40:44.479Z,59.96
2022-09-13T10:41:44.489Z,58.64
2022-09-13T10:42:44.488Z,58.74
2022-09-13T10:43:44.649Z,58.47
2022-09-13T10:44:44.439Z,59.27
2022-09-13T10:45:44.666Z,59.56
2022-09-13T10:46:44.447Z,59.86
2022-09-13T10:47:44.459Z,58.80
2022-09-13T10:48:44.630Z,59.19
2022-09-13T10:49:44.479Z,59.49
2022-09-13T10:50:44.649Z,59.30
2022-09-13T10:51:44.396Z,59.09
2022-09-13T10:52:44.579Z,59.59
2022-09-13T10:53:44.704Z,59.39
2022-09-13T10:54:44.399Z,58.87
2022-09-13T10:55:44.370Z,58.97
2022-09-13T10:56:44.397Z,57.92
2022-09-13T10:57:44.438Z,58.44
2022-09-13T10:58:44.544Z,59.14
2022-09-13T10:59:44.358Z,58.54
2022-09-13T11:00:44.665Z,58.57
2022-09-13T11:01:44.417Z,59.86
2022-09-13T11:02:44.701Z,59.36
2022-09-13T11:03:44.835Z,59.76
2022-09-13T11:04:44.519Z,58.84
2022-09-13T11:05:44.838Z,58.64
2022-09-13T11:06:44.429Z,58.54
2022-09-13T11:07:44.328Z,58.84
2022-09-13T11:08:44.691Z,59.44
2022-09-13T11:09:44.271Z,59.04
2022-09-13T11:10:44.899Z,59.44
2022-09-13T11:11:44.919Z,58.91
2022-09-13T11:12:44.937Z,58.77
2022-09-13T11:13:45.028Z,59.07
2022-09-13T11:14:44.669Z,59.47
2022-09-13T11:15:44.299Z,59.44
2022-09-13T11:16:44.258Z,57.82
2022-09-13T11:17:44.229Z,57.85
2022-09-13T11:18:44.577Z,58.25
2022-09-13T11:19:44.922Z,58.02
2022-09-13T11:20:44.517Z,58.02
2022-09-13T11:21:44.248Z,57.59
2022-09-13T11:22:44.938Z,58.02
2022-09-13T11:23:44.468Z,58.72
2022-09-13T11:24:44.349Z,57.79
2022-09-13T11:25:45.088Z,57.69
2022-09-13T11:26:44.402Z,58.81
2022-09-13T11:27:45.076Z,58.39
2022-09-13T11:28:44.528Z,58.32
2022-09-13T11:29:44.190Z,59.74
2022-09-13T11:30:44.209Z,59.31
2022-09-13T11:31:44.235Z,58.61
2022-09-13T11:32:44.201Z,58.88
2022-09-13T11:33:44.249Z,58.46
2022-09-13T11:34:44.149Z,57.69
2022-09-13T11:35:44.291Z,58.72
2022-09-13T11:36:44.226Z,59.11
2022-09-13T11:37:44.400Z,59.51
2022-09-13T11:38:44.219Z,58.94
2022-09-13T11:39:44.207Z,58.81
2022-09-13T11:40:44.241Z,58.51
2022-09-13T11:41:44.283Z,58.39
2022-09-13T11:42:44.699Z,58.98
2022-09-13T11:43:44.048Z,57.76
2022-09-13T11:44:44.518Z,57.93
2022-09-13T11:45:44.122Z,57.64
2022-09-13T11:46:44.858Z,57.24
2022-09-13T11:47:44.379Z,56.62
2022-09-13T11:48:44.081Z,57.54
2022-09-13T11:49:44.088Z,58.01
2022-09-13T11:50:44.269Z,55.87
2022-09-13T11:51:43.997Z,56.30
2022-09-13T11:52:44.507Z,58.13
2022-09-13T11:53:44.638Z,57.14
2022-09-13T11:54:44.241Z,57.51
2022-09-13T11:55:44.888Z,57.68
2022-09-13T11:56:44.030Z,57.68
2022-09-13T11:57:43.960Z,57.04
2022-09-13T11:58:43.967Z,57.67
2022-09-13T11:59:43.951Z,58.59
2022-09-13T12:00:43.959Z,58.65
2022-09-13T12:01:43.959Z,59.78
2022-09-13T12:02:44.082Z,59.15
2022-09-13T12:03:44.299Z,58.13
2022-09-13T12:04:44.376Z,58.65
2022-09-13T12:05:44.270Z,59.78
2022-09-13T12:06:43.889Z,59.58
2022-09-13T12:07:43.899Z,59.80
2022-09-13T12:08:43.922Z,60.40
2022-09-13T12:09:43.994Z,60.83
2022-09-13T12:10:44.031Z,60.40
2022-09-13T12:11:44.080Z,60.07
2022-09-13T12:12:43.859Z,60.27
2022-09-13T12:13:43.829Z,59.84
2022-09-13T12:14:43.839Z,60.24
2022-09-13T12:15:43.819Z,59.75
2022-09-13T12:16:43.866Z,59.84
2022-09-13T12:17:43.819Z,60.37
2022-09-13T12:18:43.888Z,60.47
2022-09-13T12:19:43.841Z,60.00
2022-09-13T12:20:43.807Z,60.20
2022-09-13T12:21:43.910Z,60.50
2022-09-13T12:22:43.891Z,61.99
2022-09-13T12:23:43.898Z,61.29
2022-09-13T12:24:43.759Z,60.99
2022-09-13T12:25:43.920Z,61.39
2022-09-13T12:26:43.951Z,60.96
2022-09-13T12:27:43.951Z,60.99
2022-09-13T12:28:43.973Z,61.42
2022-09-13T12:29:44.107Z,61.02
2022-09-13T12:30:43.820Z,61.62
2022-09-13T12:31:44.061Z,62.58
2022-09-13T12:32:44.020Z,60.67
2022-09-13T12:33:43.703Z,60.44
2022-09-13T12:34:44.039Z,60.44
2022-09-13T12:35:44.050Z,60.54
2022-09-13T12:36:44.070Z,60.80
2022-09-13T12:37:44.080Z,60.50
2022-09-13T12:38:43.781Z,60.57
2022-09-13T12:39:44.133Z,61.07
2022-09-13T12:40:44.117Z,60.94
2022-09-13T12:41:43.630Z,61.46
2022-09-13T12:42:43.632Z,61.53
2022-09-13T12:43:44.160Z,60.24
2022-09-13T12:44:43.630Z,60.34
2022-09-13T12:45:43.679Z,60.27
2022-09-13T12:46:43.604Z,60.70
2022-09-13T12:47:43.721Z,61.59
2022-09-13T12:48:43.619Z,61.82
2022-09-13T12:49:43.710Z,62.78
2022-09-13T12:50:44.702Z,62.58
2022-09-13T12:51:43.568Z,61.07
2022-09-13T12:52:43.770Z,61.96